createdAt,value
2023-04-23T00:00:15.718Z,137.57
2023-04-23T00:01:15.700Z,135.29
2023-04-23T00:02:15.787Z,136.59
2023-04-23T00:03:15.799Z,137.35
2023-04-23T00:04:15.802Z,137.11
2023-04-23T00:05:15.751Z,136.28
2023-04-23T00:06:15.668Z,134.30
2023-04-23T00:07:15.710Z,135.97
2023-04-23T00:08:15.669Z,138.62
2023-04-23T00:09:15.649Z,137.33
2023-04-23T00:10:15.642Z,139.15
2023-04-23T00:11:15.655Z,136.69
2023-04-23T00:12:15.625Z,140.64
2023-04-23T00:13:15.622Z,136.57
2023-04-23T00:14:15.614Z,137.53
2023-04-23T00:15:15.611Z,137.29
2023-04-23T00:16:15.606Z,139.63
2023-04-23T00:17:15.607Z,141.19
2023-04-23T00:18:15.590Z,140.88
2023-04-23T00:19:15.620Z,140.40
2023-04-23T00:20:15.620Z,139.40
2023-04-23T00:21:15.586Z,141.02
2023-04-23T00:22:15.556Z,137.80
2023-04-23T00:23:15.622Z,139.49
2023-04-23T00:24:15.672Z,138.92
2023-04-23T00:25:15.722Z,137.07
2023-04-23T00:26:15.797Z,138.57
2023-04-23T00:27:15.859Z,138.83
2023-04-23T00:28:15.891Z,138.54
2023-04-23T00:29:15.942Z,137.14
2023-04-23T00:30:15.995Z,139.18
2023-04-23T00:31:16.152Z,136.70
2023-04-23T00:32:16.125Z,138.45
2023-04-23T00:33:16.174Z,140.56
2023-04-23T00:34:16.193Z,140.31
2023-04-23T00:35:16.175Z,136.22
2023-04-23T00:36:16.222Z,137.81
2023-04-23T00:37:16.273Z,138.52
2023-04-23T00:38:16.266Z,140.01
2023-04-23T00:39:16.340Z,137.60
2023-04-23T00:40:16.410Z,140.29
2023-04-23T00:41:16.476Z,140.10
2023-04-23T00:42:16.482Z,140.27
2023-04-23T00:43:16.550Z,137.02
2023-04-23T00:44:16.635Z,139.09
2023-04-23T00:45:16.686Z,137.50
2023-04-23T00:46:16.874Z,139.47
2023-04-23T00:47:16.838Z,142.03
2023-04-23T00:48:16.846Z,139.38
2023-04-23T00:49:16.920Z,142.40
2023-04-23T00:50:17.011Z,141.21
2023-04-23T00:51:17.064Z,139.76
2023-04-23T00:52:17.151Z,138.84
2023-04-23T00:53:17.178Z,139.66
2023-04-23T00:54:17.233Z,141.80
2023-04-23T00:55:17.338Z,140.97
2023-04-23T00:56:17.367Z,139.67
2023-04-23T00:57:17.395Z,144.66
2023-04-23T00:58:17.460Z,139.75
2023-04-23T00:59:17.530Z,139.76
2023-04-23T01:00:17.610Z,140.34
2023-04-23T01:01:17.682Z,143.54
2023-04-23T01:02:17.717Z,140.49
2023-04-23T01:03:17.853Z,141.26
2023-04-23T01:04:17.901Z,142.80
2023-04-23T01:05:17.808Z,141.56
2023-04-23T01:06:17.850Z,140.77
2023-04-23T01:07:17.919Z,141.38
2023-04-23T01:08:17.970Z,142.85
2023-04-23T01:09:18.005Z,143.05
2023-04-23T01:10:18.084Z,138.79
2023-04-23T01:11:18.101Z,142.10
2023-04-23T01:12:18.132Z,138.81
2023-04-23T01:13:18.190Z,141.98
2023-04-23T01:14:18.208Z,139.42
2023-04-23T01:15:18.274Z,140.76
2023-04-23T01:16:18.328Z,141.65
2023-04-23T01:17:18.354Z,142.20
2023-04-23T01:18:18.410Z,138.69
2023-04-23T01:19:18.438Z,140.37
2023-04-23T01:20:18.484Z,141.26
2023-04-23T01:21:18.540Z,141.73
2023-04-23T01:22:18.559Z,140.44
2023-04-23T01:23:18.625Z,140.18
2023-04-23T01:24:19.686Z,139.71
2023-04-23T01:25:18.741Z,142.88
2023-04-23T01:26:18.753Z,139.26
2023-04-23T01:27:18.798Z,141.77
2023-04-23T01:28:18.838Z,139.47
2023-04-23T01:29:18.864Z,141.51
2023-04-23T01:30:18.917Z,141.86
2023-04-23T01:31:18.978Z,138.18
2023-04-23T01:32:19.023Z,140.06
2023-04-23T01:33:19.044Z,141.51
2023-04-23T01:34:19.063Z,142.11
2023-04-23T01:35:19.172Z,141.67
2023-04-23T01:36:19.168Z,139.30
2023-04-23T01:37:19.194Z,140.20
2023-04-23T01:38:19.268Z,142.07
2023-04-23T01:39:19.253Z,142.96
2023-04-23T01:40:19.286Z,142.42
2023-04-23T01:41:19.332Z,137.21
2023-04-23T01:42:19.416Z,139.91
2023-04-23T01:43:19.401Z,139.52
2023-04-23T01:44:19.437Z,138.86
2023-04-23T01:45:19.462Z,139.84
2023-04-23T01:46:19.535Z,141.97
2023-04-23T01:47:19.629Z,142.18
2023-04-23T01:48:19.608Z,141.13
2023-04-23T01:49:19.621Z,141.68
2023-04-23T01:50:19.684Z,140.85
2023-04-23T01:51:19.753Z,143.43
2023-04-23T01:52:19.808Z,140.78
2023-04-23T01:53:19.821Z,138.06
2023-04-23T01:54:19.872Z,139.11
2023-04-23T01:55:19.909Z,142.96
2023-04-23T01:56:19.947Z,141.90
2023-04-23T01:57:19.979Z,138.13
2023-04-23T01:58:20.021Z,143.81
2023-04-23T01:59:20.053Z,144.67
2023-04-23T02:00:20.106Z,140.88
2023-04-23T02:01:20.176Z,144.34
2023-04-23T02:02:20.227Z,142.33
2023-04-23T02:03:20.391Z,141.05
2023-04-23T02:04:20.394Z,140.79
2023-04-23T02:05:20.276Z,143.61
2023-04-23T02:06:20.272Z,140.82
2023-04-23T02:07:20.303Z,142.74
2023-04-23T02:08:20.357Z,143.06
2023-04-23T02:09:20.396Z,139.76
2023-04-23T02:10:20.450Z,141.56
2023-04-23T02:11:20.486Z,142.79
2023-04-23T02:12:20.506Z,141.86
2023-04-23T02:13:20.557Z,143.15
2023-04-23T02:14:20.592Z,144.46
2023-04-23T02:15:20.558Z,143.88
2023-04-23T02:16:20.595Z,142.68
2023-04-23T02:17:20.587Z,141.71
2023-04-23T02:18:20.601Z,142.02
2023-04-23T02:19:20.628Z,144.40
2023-04-23T02:20:20.639Z,143.98
2023-04-23T02:21:20.672Z,143.16
2023-04-23T02:22:20.677Z,143.31
2023-04-23T02:23:20.708Z,142.30
2023-04-23T02:24:20.718Z,142.35
2023-04-23T02:25:20.719Z,143.17
2023-04-23T02:26:20.707Z,142.45
2023-04-23T02:27:20.721Z,143.25
2023-04-23T02:28:20.755Z,141.88
2023-04-23T02:29:20.754Z,142.16
2023-04-23T02:30:20.736Z,140.77
2023-04-23T02:31:20.854Z,142.00
2023-04-23T02:32:20.789Z,142.02
2023-04-23T02:33:20.790Z,139.61
2023-04-23T02:34:20.778Z,142.36
2023-04-23T02:35:20.794Z,144.43
2023-04-23T02:36:20.796Z,138.82
2023-04-23T02:37:20.806Z,140.52
2023-04-23T02:38:20.831Z,142.62
2023-04-23T02:39:20.807Z,146.22
2023-04-23T02:40:20.798Z,143.36
2023-04-23T02:41:20.796Z,144.22
2023-04-23T02:42:20.820Z,142.39
2023-04-23T02:43:20.811Z,142.56
2023-04-23T02:44:20.830Z,143.80
2023-04-23T02:45:20.808Z,142.37
2023-04-23T02:46:20.847Z,142.13
2023-04-23T02:47:20.805Z,146.08
2023-04-23T02:48:20.813Z,144.09
2023-04-23T02:49:20.780Z,142.40
2023-04-23T02:50:20.804Z,139.90
2023-04-23T02:51:20.773Z,144.81
2023-04-23T02:52:20.786Z,141.65
2023-04-23T02:53:20.769Z,144.27
2023-04-23T02:54:20.788Z,142.64
2023-04-23T02:55:20.784Z,144.12
2023-04-23T02:56:20.754Z,141.27
2023-04-23T02:57:20.749Z,144.92
2023-04-23T02:58:20.749Z,141.49
2023-04-23T02:59:20.760Z,141.92
2023-04-23T03:00:20.761Z,142.75
2023-04-23T03:01:20.798Z,140.70
2023-04-23T03:02:20.874Z,145.15
2023-04-23T03:03:20.865Z,142.25
2023-04-23T03:04:20.826Z,144.82
2023-04-23T03:05:20.769Z,143.24
2023-04-23T03:06:20.800Z,143.64
2023-04-23T03:07:20.793Z,143.31
2023-04-23T03:08:20.779Z,143.64
2023-04-23T03:09:20.736Z,140.11
2023-04-23T03:10:20.753Z,141.96
2023-04-23T03:11:20.756Z,142.61
2023-04-23T03:12:20.761Z,141.07
2023-04-23T03:13:20.733Z,144.50
2023-04-23T03:14:20.712Z,144.51
2023-04-23T03:15:20.732Z,143.74
2023-04-23T03:16:20.772Z,144.92
2023-04-23T03:17:20.724Z,141.15
2023-04-23T03:18:20.748Z,142.44
2023-04-23T03:19:20.711Z,144.07
2023-04-23T03:20:20.713Z,142.28
2023-04-23T03:21:20.723Z,144.17
2023-04-23T03:22:20.720Z,140.60
2023-04-23T03:23:20.750Z,145.77
2023-04-23T03:24:20.706Z,145.05
2023-04-23T03:25:20.717Z,140.12
2023-04-23T03:26:20.707Z,144.95
2023-04-23T03:27:20.724Z,144.77
2023-04-23T03:28:20.744Z,145.03
2023-04-23T03:29:20.710Z,143.20
2023-04-23T03:30:20.700Z,145.66
2023-04-23T03:31:20.824Z,144.04
2023-04-23T03:32:20.822Z,145.56
2023-04-23T03:33:20.730Z,144.53
2023-04-23T03:34:20.712Z,145.21
2023-04-23T03:35:20.745Z,143.05
2023-04-23T03:36:20.770Z,143.39
2023-04-23T03:37:20.788Z,143.52
2023-04-23T03:38:21.225Z,143.02
2023-04-23T03:39:20.763Z,145.08
2023-04-23T03:40:20.770Z,141.77
2023-04-23T03:41:20.786Z,144.81
2023-04-23T03:42:20.770Z,143.54
2023-04-23T03:43:20.790Z,148.22
2023-04-23T03:44:20.769Z,144.75
2023-04-23T03:45:20.757Z,144.74
2023-04-23T03:46:20.818Z,142.02
2023-04-23T03:47:20.781Z,144.95
2023-04-23T03:48:20.816Z,144.52
2023-04-23T03:49:20.768Z,143.00
2023-04-23T03:50:20.783Z,144.18
2023-04-23T03:51:20.748Z,143.31
2023-04-23T03:52:20.747Z,144.28
2023-04-23T03:53:20.736Z,144.47
2023-04-23T03:54:20.744Z,143.16
2023-04-23T03:55:20.731Z,143.15
2023-04-23T03:56:20.735Z,147.52
2023-04-23T03:57:20.736Z,146.86
2023-04-23T03:58:20.733Z,145.10
2023-04-23T03:59:20.722Z,146.68
2023-04-23T04:00:20.736Z,144.54
2023-04-23T04:01:20.708Z,146.63
2023-04-23T04:02:20.844Z,145.73
2023-04-23T04:03:20.846Z,145.10
2023-04-23T04:04:20.852Z,145.54
2023-04-23T04:05:20.754Z,143.08
2023-04-23T04:06:20.690Z,145.76
2023-04-23T04:07:20.683Z,142.97
2023-04-23T04:08:20.703Z,145.21
2023-04-23T04:09:20.704Z,143.64
2023-04-23T04:10:20.699Z,141.17
2023-04-23T04:11:20.719Z,143.29
2023-04-23T04:12:20.748Z,144.84
2023-04-23T04:13:20.690Z,144.38
2023-04-23T04:14:20.670Z,144.85
2023-04-23T04:15:20.677Z,143.47
2023-04-23T04:16:20.712Z,147.43
2023-04-23T04:17:20.688Z,143.35
2023-04-23T04:18:20.709Z,145.00
2023-04-23T04:19:20.679Z,143.70
2023-04-23T04:20:20.675Z,144.52
2023-04-23T04:21:20.672Z,141.82
2023-04-23T04:22:20.672Z,145.49
2023-04-23T04:23:20.676Z,146.58
2023-04-23T04:24:20.655Z,144.10
2023-04-23T04:25:20.654Z,145.65
2023-04-23T04:26:20.745Z,143.06
2023-04-23T04:27:20.656Z,144.18
2023-04-23T04:28:20.690Z,145.26
2023-04-23T04:29:20.659Z,143.67
2023-04-23T04:30:20.650Z,145.05
2023-04-23T04:31:20.733Z,146.08
2023-04-23T04:32:20.684Z,145.43
2023-04-23T04:33:20.648Z,141.57
2023-04-23T04:34:20.641Z,142.11
2023-04-23T04:35:20.639Z,145.15
2023-04-23T04:36:20.660Z,145.39
2023-04-23T04:37:20.654Z,145.97
2023-04-23T04:38:20.691Z,143.85
2023-04-23T04:39:20.685Z,149.09
2023-04-23T04:40:20.651Z,144.07
2023-04-23T04:41:20.653Z,142.50
2023-04-23T04:42:20.646Z,141.68
2023-04-23T04:43:20.685Z,145.96
2023-04-23T04:44:20.683Z,144.55
2023-04-23T04:45:20.679Z,145.07
2023-04-23T04:46:20.714Z,144.24
2023-04-23T04:47:20.720Z,143.79
2023-04-23T04:48:20.648Z,142.33
2023-04-23T04:49:20.638Z,141.78
2023-04-23T04:50:20.644Z,143.29
2023-04-23T04:51:20.633Z,146.92
2023-04-23T04:52:20.649Z,144.32
2023-04-23T04:53:20.669Z,146.50
2023-04-23T04:54:20.644Z,145.85
2023-04-23T04:55:20.672Z,143.24
2023-04-23T04:56:20.658Z,145.48
2023-04-23T04:57:20.641Z,144.01
2023-04-23T04:58:20.653Z,144.11
2023-04-23T04:59:20.631Z,146.10
2023-04-23T05:00:20.647Z,140.79
2023-04-23T05:01:20.703Z,143.75
2023-04-23T05:02:20.702Z,140.61
2023-04-23T05:03:20.817Z,144.20
2023-04-23T05:04:20.706Z,143.34
2023-04-23T05:05:20.643Z,144.77
2023-04-23T05:06:20.635Z,144.66
2023-04-23T05:07:20.654Z,145.78
2023-04-23T05:08:20.630Z,141.15
2023-04-23T05:09:20.667Z,144.91
2023-04-23T05:10:20.640Z,142.63
2023-04-23T05:11:20.634Z,144.93
2023-04-23T05:12:20.628Z,141.72
2023-04-23T05:13:20.670Z,143.43
2023-04-23T05:14:20.663Z,144.05
2023-04-23T05:15:20.623Z,144.55
2023-04-23T05:16:20.665Z,143.38
2023-04-23T05:17:20.664Z,142.30
2023-04-23T05:18:20.683Z,140.66
2023-04-23T05:19:20.900Z,142.60
2023-04-23T05:20:20.624Z,144.37
2023-04-23T05:21:20.631Z,143.61
2023-04-23T05:22:20.632Z,144.00
2023-04-23T05:23:20.658Z,142.88
2023-04-23T05:24:20.642Z,144.10
2023-04-23T05:25:20.670Z,141.86
2023-04-23T05:26:20.618Z,144.14
2023-04-23T05:27:20.640Z,145.53
2023-04-23T05:28:20.650Z,144.61
2023-04-23T05:29:20.636Z,143.02
2023-04-23T05:30:20.653Z,141.42
2023-04-23T05:31:20.611Z,143.59
2023-04-23T05:32:20.710Z,143.66
2023-04-23T05:33:20.652Z,143.30
2023-04-23T05:34:20.617Z,144.31
2023-04-23T05:35:20.623Z,146.89
2023-04-23T05:36:20.602Z,143.61
2023-04-23T05:37:20.615Z,141.35
2023-04-23T05:38:20.652Z,143.95
2023-04-23T05:39:20.658Z,144.27
2023-04-23T05:40:20.613Z,144.52
2023-04-23T05:41:20.653Z,145.53
2023-04-23T05:42:20.654Z,146.58
2023-04-23T05:43:20.618Z,144.85
2023-04-23T05:44:20.628Z,141.56
2023-04-23T05:45:20.614Z,140.98
2023-04-23T05:46:20.626Z,145.56
2023-04-23T05:47:20.650Z,144.21
2023-04-23T05:48:20.659Z,146.94
2023-04-23T05:49:20.625Z,142.53
2023-04-23T05:50:20.649Z,142.58
2023-04-23T05:51:20.610Z,142.92
2023-04-23T05:52:20.600Z,142.47
2023-04-23T05:53:20.672Z,142.61
2023-04-23T05:54:20.615Z,144.52
2023-04-23T05:55:20.617Z,144.89
2023-04-23T05:56:20.607Z,142.43
2023-04-23T05:57:20.609Z,144.39
2023-04-23T05:58:20.609Z,143.87
2023-04-23T05:59:20.608Z,142.66
2023-04-23T06:00:20.623Z,147.85
2023-04-23T06:01:20.600Z,144.31
2023-04-23T06:02:22.497Z,145.77
2023-04-23T06:03:21.025Z,144.36
2023-04-23T06:04:20.924Z,145.89
2023-04-23T06:05:21.020Z,145.82
2023-04-23T06:06:20.585Z,145.43
2023-04-23T06:07:20.610Z,146.00
2023-04-23T06:08:20.567Z,142.24
2023-04-23T06:09:20.593Z,143.80
2023-04-23T06:10:20.559Z,147.36
2023-04-23T06:11:20.538Z,144.07
2023-04-23T06:12:20.581Z,147.14
2023-04-23T06:13:20.547Z,146.01
2023-04-23T06:14:20.516Z,145.18
2023-04-23T06:15:20.506Z,143.15
2023-04-23T06:16:20.550Z,145.40
2023-04-23T06:17:20.487Z,143.91
2023-04-23T06:18:20.485Z,144.51
2023-04-23T06:19:20.471Z,150.20
2023-04-23T06:20:20.480Z,145.13
2023-04-23T06:21:20.500Z,145.32
2023-04-23T06:22:20.470Z,147.02
2023-04-23T06:23:20.497Z,143.27
2023-04-23T06:24:20.445Z,143.23
2023-04-23T06:25:20.471Z,142.44
2023-04-23T06:26:20.430Z,145.91
2023-04-23T06:27:20.453Z,146.42
2023-04-23T06:28:20.422Z,146.64
2023-04-23T06:29:20.415Z,142.98
2023-04-23T06:30:20.510Z,143.59
2023-04-23T06:31:20.458Z,145.48
2023-04-23T06:32:20.678Z,141.63
2023-04-23T06:33:20.412Z,143.29
2023-04-23T06:34:20.384Z,144.27
2023-04-23T06:35:20.393Z,146.50
2023-04-23T06:36:20.474Z,145.40
2023-04-23T06:37:20.374Z,147.02
2023-04-23T06:38:20.397Z,146.09
2023-04-23T06:39:20.368Z,142.72
2023-04-23T06:40:20.329Z,145.79
2023-04-23T06:41:20.376Z,144.34
2023-04-23T06:42:20.344Z,147.53
2023-04-23T06:43:20.337Z,143.19
2023-04-23T06:44:20.308Z,144.24
2023-04-23T06:45:20.333Z,143.97
2023-04-23T06:46:20.337Z,143.67
2023-04-23T06:47:20.309Z,143.24
2023-04-23T06:48:20.346Z,146.36
2023-04-23T06:49:20.305Z,144.80
2023-04-23T06:50:20.423Z,144.64
2023-04-23T06:51:20.305Z,145.65
2023-04-23T06:52:20.245Z,144.73
2023-04-23T06:53:20.260Z,143.44
2023-04-23T06:54:20.267Z,144.83
2023-04-23T06:55:20.250Z,143.81
2023-04-23T06:56:20.298Z,141.75
2023-04-23T06:57:20.314Z,143.29
2023-04-23T06:58:20.281Z,143.57
2023-04-23T06:59:20.268Z,142.15
2023-04-23T07:00:20.206Z,142.91
2023-04-23T07:01:20.391Z,145.37
2023-04-23T07:02:20.249Z,147.03
2023-04-23T07:03:20.232Z,142.20
2023-04-23T07:04:20.196Z,144.06
2023-04-23T07:05:20.190Z,143.46
2023-04-23T07:06:20.181Z,143.84
2023-04-23T07:07:20.173Z,144.52
2023-04-23T07:08:20.192Z,142.11
2023-04-23T07:09:20.148Z,141.78
2023-04-23T07:10:20.152Z,145.69
2023-04-23T07:11:20.151Z,145.75
2023-04-23T07:12:20.141Z,142.13
2023-04-23T07:13:20.122Z,143.60
2023-04-23T07:14:20.129Z,142.93
2023-04-23T07:15:20.200Z,141.90
2023-04-23T07:16:22.140Z,144.13
2023-04-23T07:17:20.170Z,142.17
2023-04-23T07:18:20.151Z,141.55
2023-04-23T07:19:20.118Z,142.36
2023-04-23T07:20:20.081Z,140.77
2023-04-23T07:21:20.105Z,143.19
2023-04-23T07:22:20.144Z,143.37
2023-04-23T07:23:20.195Z,141.04
2023-04-23T07:24:20.245Z,144.17
2023-04-23T07:25:20.297Z,143.56
2023-04-23T07:26:20.358Z,141.79
2023-04-23T07:27:20.478Z,143.61
2023-04-23T07:28:20.532Z,142.72
2023-04-23T07:29:20.579Z,142.82
2023-04-23T07:30:20.611Z,146.05
2023-04-23T07:31:20.945Z,140.89
2023-04-23T07:32:20.749Z,144.86
2023-04-23T07:33:20.774Z,141.68
2023-04-23T07:34:20.824Z,143.21
2023-04-23T07:35:20.894Z,142.68
2023-04-23T07:36:20.972Z,139.75
2023-04-23T07:37:21.018Z,143.44
2023-04-23T07:38:21.058Z,140.24
2023-04-23T07:39:21.129Z,142.84
2023-04-23T07:40:21.263Z,142.93
2023-04-23T07:41:21.239Z,141.98
2023-04-23T07:42:21.369Z,141.06
2023-04-23T07:43:29.943Z,145.68
2023-04-23T07:44:21.516Z,146.09
2023-04-23T07:45:21.558Z,146.21
2023-04-23T07:46:21.647Z,145.95
2023-04-23T07:47:21.707Z,143.78
2023-04-23T07:48:21.693Z,143.93
2023-04-23T07:49:21.749Z,143.69
2023-04-23T07:50:21.759Z,145.69
2023-04-23T07:51:21.802Z,142.67
2023-04-23T07:52:21.862Z,144.46
2023-04-23T07:53:21.870Z,138.58
2023-04-23T07:54:23.536Z,140.79
2023-04-23T07:55:21.891Z,143.34
2023-04-23T07:56:21.882Z,139.80
2023-04-23T07:57:21.884Z,142.08
2023-04-23T07:58:21.895Z,138.95
2023-04-23T07:59:21.874Z,140.04
2023-04-23T08:00:21.879Z,135.60
2023-04-23T08:01:21.913Z,137.07
2023-04-23T08:02:21.938Z,137.34
2023-04-23T08:03:22.000Z,140.31
2023-04-23T08:04:22.149Z,139.45
2023-04-23T08:05:21.991Z,137.58
2023-04-23T08:06:21.844Z,139.12
2023-04-23T08:07:29.399Z,138.12
2023-04-23T08:08:21.819Z,138.70
2023-04-23T08:09:21.809Z,139.53
2023-04-23T08:10:21.811Z,139.22
2023-04-23T08:11:21.804Z,140.05
2023-04-23T08:12:21.798Z,140.61
2023-04-23T08:13:21.842Z,141.52
2023-04-23T08:14:21.762Z,140.01
2023-04-23T08:15:21.757Z,137.14
2023-04-23T08:16:21.817Z,140.75
2023-04-23T08:17:21.790Z,138.32
2023-04-23T08:18:21.777Z,140.34
2023-04-23T08:19:21.767Z,139.35
2023-04-23T08:20:21.900Z,140.08
2023-04-23T08:21:21.731Z,138.16
2023-04-23T08:22:22.260Z,136.94
2023-04-23T08:23:21.705Z,140.13
2023-04-23T08:24:21.710Z,137.10
2023-04-23T08:25:21.719Z,136.96
2023-04-23T08:26:21.712Z,139.37
2023-04-23T08:27:21.684Z,138.38
2023-04-23T08:28:21.700Z,139.33
2023-04-23T08:29:21.713Z,140.79
2023-04-23T08:30:21.674Z,140.21
2023-04-23T08:31:26.438Z,139.40
2023-04-23T08:32:22.838Z,139.79
2023-04-23T08:33:21.669Z,140.22
2023-04-23T08:34:21.672Z,140.65
2023-04-23T08:35:21.651Z,141.63
2023-04-23T08:36:21.633Z,144.28
2023-04-23T08:37:30.228Z,139.60
2023-04-23T08:38:22.647Z,139.88
2023-04-23T08:39:21.615Z,140.40
2023-04-23T08:40:21.588Z,141.22
2023-04-23T08:41:21.632Z,142.87
2023-04-23T08:42:21.595Z,143.62
2023-04-23T08:43:21.572Z,143.76
2023-04-23T08:44:21.571Z,145.92
2023-04-23T08:45:21.579Z,146.04
2023-04-23T08:46:21.630Z,147.08
2023-04-23T08:47:21.650Z,147.85
2023-04-23T08:48:21.575Z,146.02
2023-04-23T08:49:21.652Z,146.40
2023-04-23T08:50:21.674Z,147.39
2023-04-23T08:51:21.671Z,148.67
2023-04-23T08:52:21.737Z,147.00
2023-04-23T08:53:21.790Z,149.45
2023-04-23T08:54:21.816Z,150.91
2023-04-23T08:55:21.861Z,150.61
2023-04-23T08:56:21.891Z,150.14
2023-04-23T08:57:21.970Z,151.21
2023-04-23T08:58:22.073Z,147.53
2023-04-23T08:59:22.062Z,146.05
2023-04-23T09:00:22.176Z,149.84
2023-04-23T09:01:22.268Z,152.39
2023-04-23T09:02:22.273Z,149.08
2023-04-23T09:03:22.398Z,150.40
2023-04-23T09:04:22.308Z,148.03
2023-04-23T09:05:22.338Z,149.89
2023-04-23T09:06:22.345Z,145.06
2023-04-23T09:07:22.424Z,149.14
2023-04-23T09:08:23.422Z,146.70
2023-04-23T09:09:22.493Z,150.73
2023-04-23T09:10:22.552Z,149.42
2023-04-23T09:11:22.563Z,147.19
2023-04-23T09:12:22.621Z,149.72
2023-04-23T09:13:22.828Z,149.87
2023-04-23T09:14:22.670Z,149.97
2023-04-23T09:15:22.721Z,149.39
2023-04-23T09:16:22.771Z,148.16
2023-04-23T09:17:22.792Z,148.84
2023-04-23T09:18:22.816Z,151.06
2023-04-23T09:19:22.872Z,151.13
2023-04-23T09:20:22.913Z,152.03
2023-04-23T09:21:22.982Z,150.48
2023-04-23T09:22:22.985Z,146.90
2023-04-23T09:23:23.046Z,146.96
2023-04-23T09:24:23.068Z,147.27
2023-04-23T09:25:23.088Z,149.26
2023-04-23T09:26:23.116Z,150.66
2023-04-23T09:27:23.119Z,146.12
2023-04-23T09:28:23.166Z,146.38
2023-04-23T09:29:23.213Z,148.08
2023-04-23T09:30:23.240Z,149.73
2023-04-23T09:31:23.279Z,150.48
2023-04-23T09:32:23.480Z,149.34
2023-04-23T09:33:23.254Z,144.10
2023-04-23T09:34:23.284Z,136.64
2023-04-23T09:35:23.276Z,138.12
2023-04-23T09:36:23.273Z,138.27
2023-04-23T09:37:23.329Z,140.54
2023-04-23T09:38:23.345Z,136.25
2023-04-23T09:39:23.353Z,139.46
2023-04-23T09:40:23.429Z,138.72
2023-04-23T09:41:23.405Z,130.88
2023-04-23T09:42:23.449Z,126.98
2023-04-23T09:43:23.497Z,133.91
2023-04-23T09:44:23.496Z,130.96
2023-04-23T09:45:23.526Z,133.64
2023-04-23T09:46:23.562Z,122.63
2023-04-23T09:47:25.155Z,120.78
2023-04-23T09:48:23.598Z,123.49
2023-04-23T09:49:23.609Z,125.65
2023-04-23T09:50:23.678Z,118.45
2023-04-23T09:51:23.696Z,119.46
2023-04-23T09:52:23.698Z,125.04
2023-04-23T09:53:23.720Z,125.21
2023-04-23T09:54:23.739Z,117.39
2023-04-23T09:55:23.703Z,120.53
2023-04-23T09:56:23.783Z,123.29
2023-04-23T09:57:23.743Z,123.36
2023-04-23T09:58:23.757Z,124.33
2023-04-23T09:59:46.258Z,122.78
2023-04-23T10:00:24.742Z,123.04
2023-04-23T10:01:23.766Z,122.93
2023-04-23T10:02:23.882Z,123.96
2023-04-23T10:03:23.826Z,126.99
2023-04-23T10:04:23.894Z,128.96
2023-04-23T10:05:25.973Z,127.91
2023-04-23T10:06:40.792Z,128.21
2023-04-23T10:07:24.699Z,128.17
2023-04-23T10:08:23.700Z,128.55
2023-04-23T10:09:23.706Z,128.55
2023-04-23T10:10:23.692Z,120.02
2023-04-23T10:11:23.675Z,117.80
2023-04-23T10:13:23.664Z,121.55
2023-04-23T10:14:23.651Z,121.54
2023-04-23T10:15:23.744Z,114.61
2023-04-23T10:16:26.911Z,117.05
2023-04-23T10:17:24.696Z,122.51
2023-04-23T10:18:23.691Z,113.46
2023-04-23T10:19:23.645Z,112.15
2023-04-23T10:20:23.720Z,114.11
2023-04-23T10:21:23.623Z,117.41
2023-04-23T10:22:23.613Z,121.51
2023-04-23T10:23:23.603Z,122.40
2023-04-23T10:24:23.594Z,117.80
2023-04-23T10:25:23.594Z,119.70
2023-04-23T10:26:23.592Z,120.11
2023-04-23T10:27:33.247Z,122.69
2023-04-23T10:28:24.581Z,122.90
2023-04-23T10:29:23.567Z,123.64
2023-04-23T10:30:23.623Z,121.05
2023-04-23T10:31:23.609Z,121.03
2023-04-23T10:32:23.542Z,122.52
2023-04-23T10:33:30.517Z,117.64
2023-04-23T10:34:24.559Z,117.82
2023-04-23T10:35:23.618Z,116.73
2023-04-23T10:36:23.509Z,112.82
2023-04-23T10:37:23.508Z,109.33
2023-04-23T10:38:23.501Z,106.65
2023-04-23T10:39:29.762Z,103.85
2023-04-23T10:40:24.501Z,104.00
2023-04-23T10:41:23.526Z,103.62
2023-04-23T10:42:23.485Z,103.06
2023-04-23T10:43:23.461Z,102.92
2023-04-23T10:44:45.092Z,99.07
2023-04-23T10:45:25.564Z,104.06
2023-04-23T10:46:23.466Z,99.38
2023-04-23T10:47:23.449Z,90.19
2023-04-23T10:48:23.468Z,84.60
2023-04-23T10:49:23.945Z,89.92
2023-04-23T10:50:23.561Z,86.99
2023-04-23T10:52:06.361Z,90.57
2023-04-23T10:52:26.098Z,90.74
2023-04-23T10:53:23.835Z,91.10
2023-04-23T10:54:23.905Z,88.22
2023-04-23T10:55:23.996Z,85.03
2023-04-23T10:56:24.025Z,83.67
2023-04-23T10:57:24.062Z,88.51
2023-04-23T10:58:24.089Z,88.84
2023-04-23T10:59:24.132Z,89.81
2023-04-23T11:00:24.158Z,92.37
2023-04-23T11:01:24.233Z,95.08
2023-04-23T11:02:24.443Z,93.37
2023-04-23T11:03:24.353Z,86.49
2023-04-23T11:04:24.738Z,83.17
2023-04-23T11:05:24.244Z,82.99
2023-04-23T11:06:24.266Z,83.55
2023-04-23T11:07:24.253Z,81.33
2023-04-23T11:08:24.250Z,81.77
2023-04-23T11:09:24.287Z,81.21
2023-04-23T11:10:24.246Z,81.32
2023-04-23T11:11:24.250Z,80.83
2023-04-23T11:12:24.244Z,76.10
2023-04-23T11:13:24.264Z,80.10
2023-04-23T11:14:24.254Z,84.72
2023-04-23T11:15:24.275Z,84.47
2023-04-23T11:16:24.335Z,84.10
2023-04-23T11:17:24.336Z,84.58
2023-04-23T11:18:24.295Z,83.19
2023-04-23T11:19:24.320Z,83.20
2023-04-23T11:20:24.318Z,88.33
2023-04-23T11:21:24.325Z,91.18
2023-04-23T11:22:24.324Z,92.51
2023-04-23T11:23:24.333Z,86.13
2023-04-23T11:24:24.343Z,83.96
2023-04-23T11:25:24.343Z,82.02
2023-04-23T11:26:24.341Z,79.32
2023-04-23T11:27:24.334Z,79.88
2023-04-23T11:28:24.343Z,81.26
2023-04-23T11:29:24.363Z,80.92
2023-04-23T11:30:24.372Z,78.62
2023-04-23T11:31:24.417Z,76.42
2023-04-23T11:32:24.450Z,76.29
2023-04-23T11:33:24.413Z,76.50
2023-04-23T11:34:24.394Z,80.70
2023-04-23T11:35:24.376Z,78.38
2023-04-23T11:36:24.383Z,77.03
2023-04-23T11:37:24.419Z,73.51
2023-04-23T11:38:24.384Z,73.71
2023-04-23T11:39:24.385Z,74.60
2023-04-23T11:40:24.468Z,77.76
2023-04-23T11:41:24.399Z,81.02
2023-04-23T11:42:24.399Z,82.39
2023-04-23T11:43:24.358Z,74.72
2023-04-23T11:44:24.386Z,69.27
2023-04-23T11:45:24.365Z,71.92
2023-04-23T11:46:24.373Z,68.38
2023-04-23T11:47:24.426Z,67.49
2023-04-23T11:48:24.374Z,71.10
2023-04-23T11:49:24.366Z,68.17
2023-04-23T11:50:24.349Z,66.10
2023-04-23T11:51:24.343Z,63.99
2023-04-23T11:52:24.341Z,65.83
2023-04-23T11:53:24.333Z,64.02
2023-04-23T11:54:24.357Z,61.40
2023-04-23T11:55:24.339Z,60.63
2023-04-23T11:56:24.377Z,63.17
2023-04-23T11:57:24.338Z,61.24
2023-04-23T11:58:24.344Z,57.26
2023-04-23T11:59:24.363Z,59.01
2023-04-23T12:00:24.384Z,63.13
2023-04-23T12:01:24.346Z,60.69
2023-04-23T12:02:24.470Z,57.99
2023-04-23T12:03:24.476Z,56.05
2023-04-23T12:04:24.454Z,55.45
2023-04-23T12:05:24.422Z,55.62
2023-04-23T12:06:24.353Z,58.93
2023-04-23T12:07:26.631Z,62.79
2023-04-23T12:08:24.480Z,65.17
2023-04-23T12:09:24.505Z,56.55
2023-04-23T12:10:24.515Z,55.95
2023-04-23T12:11:24.510Z,52.63
2023-04-23T12:12:24.513Z,49.33
2023-04-23T12:13:24.521Z,48.05
2023-04-23T12:14:24.583Z,45.42
2023-04-23T12:15:24.506Z,45.28
2023-04-23T12:16:24.599Z,43.64
2023-04-23T12:17:24.551Z,44.11
2023-04-23T12:18:24.553Z,43.27
2023-04-23T12:19:24.576Z,42.33
2023-04-23T12:20:24.576Z,38.70
2023-04-23T12:21:26.182Z,44.27
2023-04-23T12:22:24.622Z,40.29
2023-04-23T12:23:24.640Z,36.41
2023-04-23T12:24:24.692Z,31.31
2023-04-23T12:25:24.684Z,28.39
2023-04-23T12:26:24.718Z,29.66
2023-04-23T12:27:24.717Z,26.59
2023-04-23T12:28:24.717Z,26.40
2023-04-23T12:29:24.734Z,28.55
2023-04-23T12:30:24.734Z,27.24
2023-04-23T12:31:24.802Z,27.16
2023-04-23T12:32:24.801Z,31.26